Terminal Aerodrome Forecast
Issued by NWS

Home | Current Version | Previous Version | Text Only | Print | Product List | Glossary On
Versions: 1 2 3 4 5 6 7 8 9 10 11 12 13 14 15 16 17 18 19 20 21 22 23 24 25
279
FTUS41 KBUF 282320
TAFJHW
TAF
KJHW 282320Z 2900/2924 12007KT P6SM SCT070
     FM290200 11007KT P6SM BKN070
     FM290500 09009KT P6SM VCSH OVC050
     FM290800 09008KT 6SM -SHRA OVC045
     FM291000 09008KT 6SM -SHRA OVC020
     FM291200 09011KT 4SM SHRA BR OVC007
     FM292100 10012G20KT 6SM -SHRA OVC007
      AMD LTD TO CLD VIS AND WIND=

USA.gov is the U.S. government's official web portal to all federal, state and local government web resources and services.